Time;durP1;ratioP1;P1;durP2;ratioP2;P2;SDS_P1;SDS_P2;PMS_P1;PMS_P2;Temp;Humidity;BMP_temperature;BMP_pressure;BME280_temperature;BME280_humidity;BME280_pressure;Samples;Min_cycle;Max_cycle;Signal;HPM_P1;HPM_P2
2022/04/01 00:00:01;;;;;;;106.30;34.75;;;;;;;3.00;100.00;93860.06;5031675;28;24454;-73
2022/04/01 00:02:27;;;;;;;177.38;37.53;;;;;;;2.94;100.00;93850.25;5031742;28;24527;-73
2022/04/01 00:04:54;;;;;;;63.05;34.28;;;;;;;2.94;100.00;93856.19;5032098;28;24874;-73
2022/04/01 00:07:20;;;;;;;69.60;32.15;;;;;;;2.99;100.00;93853.34;5031791;28;24527;-73
2022/04/01 00:09:47;;;;;;;76.75;33.53;;;;;;;2.95;100.00;93857.81;5031140;28;24981;-73
2022/04/01 00:12:14;;;;;;;35.10;29.83;;;;;;;2.94;100.00;93858.75;5032016;28;24447;-73
2022/04/01 00:14:41;;;;;;;30.42;27.40;;;;;;;3.03;100.00;93852.22;5032503;28;24419;-73
2022/04/01 00:17:08;;;;;;;31.13;28.15;;;;;;;3.14;100.00;93860.03;5032760;28;24423;-73
2022/04/01 00:19:34;;;;;;;29.05;26.17;;;;;;;3.18;100.00;93852.97;5032695;28;24439;-73
2022/04/01 00:22:01;;;;;;;27.92;25.17;;;;;;;3.18;100.00;93853.78;5032830;28;24437;-73
2022/04/01 00:24:27;;;;;;;28.52;25.58;;;;;;;3.29;100.00;93858.22;5033454;28;24829;-73
2022/04/01 00:26:54;;;;;;;27.45;24.52;;;;;;;3.29;100.00;93853.09;5032902;28;24423;-73
2022/04/01 00:29:21;;;;;;;25.35;22.52;;;;;;;3.33;100.00;93862.22;5032571;28;24976;-73
2022/04/01 00:31:58;;;;;;;24.92;22.42;;;;;;;3.25;100.00;93860.16;5032420;28;24786;-73
2022/04/01 00:34:26;;;;;;;22.88;20.45;;;;;;;2.97;100.00;93858.56;5032652;28;24896;-73
2022/04/01 00:36:53;;;;;;;24.38;21.77;;;;;;;3.04;100.00;93862.38;5032749;28;24426;-74
2022/04/01 00:39:21;;;;;;;24.58;22.17;;;;;;;3.13;100.00;93866.06;5032765;28;24431;-74
2022/04/01 00:41:49;;;;;;;25.38;22.50;;;;;;;3.07;100.00;93861.34;5032227;28;24420;-74
2022/04/01 00:44:18;;;;;;;26.65;22.80;;;;;;;3.03;100.00;93862.44;5032443;28;24490;-74
2022/04/01 00:46:47;;;;;;;26.02;23.38;;;;;;;2.97;100.00;93853.44;5032437;28;24432;-74
2022/04/01 00:49:14;;;;;;;26.63;23.90;;;;;;;3.05;100.00;93860.63;5032323;28;24444;-73
2022/04/01 00:51:43;;;;;;;24.90;22.52;;;;;;;3.00;100.00;93858.34;5032295;28;24416;-73
2022/04/01 00:54:10;;;;;;;25.00;22.30;;;;;;;3.07;100.00;93858.78;5032382;28;24463;-73
2022/04/01 00:56:38;;;;;;;25.60;23.00;;;;;;;2.88;100.00;93854.00;5032672;28;24427;-73
2022/04/01 00:59:04;;;;;;;25.40;22.75;;;;;;;2.80;100.00;93866.47;5031945;28;24439;-73
2022/04/01 01:01:31;;;;;;;24.87;22.07;;;;;;;2.79;100.00;93864.84;5032093;28;24435;-73
2022/04/01 01:04:02;;;;;;;25.17;22.42;;;;;;;2.68;100.00;93860.38;5033879;28;24513;-73
2022/04/01 01:06:30;;;;;;;24.97;22.57;;;;;;;2.63;100.00;93860.69;5033721;28;24427;-73
2022/04/01 01:08:57;;;;;;;26.52;23.92;;;;;;;2.59;100.00;93864.31;5032205;28;24482;-73
2022/04/01 01:11:25;;;;;;;27.65;24.70;;;;;;;2.64;100.00;93857.22;5031639;28;24440;-74
2022/04/01 01:13:52;;;;;;;28.93;25.83;;;;;;;2.62;100.00;93856.47;5031389;28;24424;-74
2022/04/01 01:16:19;;;;;;;26.23;23.45;;;;;;;2.74;100.00;93856.63;5031973;28;24434;-73
2022/04/01 01:18:46;;;;;;;28.90;23.77;;;;;;;2.56;100.00;93854.31;5032275;28;25012;-73
2022/04/01 01:21:14;;;;;;;26.40;23.60;;;;;;;2.69;100.00;93854.34;5032433;28;24435;-73
2022/04/01 01:23:41;;;;;;;24.63;22.17;;;;;;;2.45;100.00;93853.31;5031974;28;24444;-73
2022/04/01 01:26:11;;;;;;;25.25;22.48;;;;;;;2.48;100.00;93855.69;5031220;28;24996;-73
2022/04/01 01:28:38;;;;;;;24.83;22.25;;;;;;;2.46;100.00;93855.78;5032179;28;24774;-73
2022/04/01 01:31:23;;;;;;;25.15;22.55;;;;;;;2.45;100.00;93861.81;5032244;28;24427;-73
2022/04/01 01:33:51;;;;;;;25.98;23.45;;;;;;;2.41;100.00;93861.19;5031647;28;24427;-73
2022/04/01 01:36:18;;;;;;;26.60;23.73;;;;;;;2.41;100.00;93863.75;5031401;28;24439;-73
2022/04/01 01:38:44;;;;;;;24.98;22.52;;;;;;;2.41;100.00;93863.75;5032025;28;24424;-74
2022/04/01 01:41:12;;;;;;;27.35;24.33;;;;;;;2.44;100.00;93862.72;5031130;28;24424;-73
2022/04/01 01:43:39;;;;;;;26.97;24.07;;;;;;;2.49;100.00;93862.47;5031851;28;24431;-73
2022/04/01 01:46:06;;;;;;;27.20;24.35;;;;;;;2.35;100.00;93853.91;5031178;28;24435;-73
2022/04/01 01:48:32;;;;;;;29.80;26.60;;;;;;;2.26;100.00;93857.00;5031283;28;24419;-74
2022/04/01 01:56:28;;;;;;;29.45;25.83;;;;;;;2.16;100.00;93850.81;5031267;28;24801;-73
2022/04/01 01:58:54;;;;;;;31.45;25.35;;;;;;;2.29;100.00;93856.00;5031006;28;24976;-73
2022/04/01 02:01:21;;;;;;;28.17;25.17;;;;;;;2.22;100.00;93858.09;5030842;28;24444;-73
2022/04/01 02:03:49;;;;;;;28.40;25.58;;;;;;;2.23;100.00;93852.09;5034787;28;24478;-73
2022/04/01 02:06:15;;;;;;;28.50;25.60;;;;;;;2.13;100.00;93848.47;5034962;28;24482;-73
2022/04/01 02:08:42;;;;;;;35.50;27.42;;;;;;;2.10;100.00;93844.34;5034981;28;24942;-73
2022/04/01 02:11:09;;;;;;;39.88;28.45;;;;;;;2.04;100.00;93849.00;5034405;28;24462;-73
2022/04/01 02:13:37;;;;;;;32.13;27.55;;;;;;;1.96;100.00;93846.09;5034492;28;24481;-74
2022/04/01 02:16:04;;;;;;;36.53;28.60;;;;;;;1.97;100.00;93846.00;5034675;28;24996;-73
2022/04/01 02:18:30;;;;;;;48.78;28.85;;;;;;;1.98;100.00;93850.19;5035052;28;24428;-73
2022/04/01 02:20:57;;;;;;;34.93;28.60;;;;;;;1.95;100.00;93852.94;5034729;28;24439;-73
2022/04/01 02:23:24;;;;;;;38.10;32.13;;;;;;;1.91;100.00;93846.38;5035099;28;25173;-74
2022/04/01 02:25:51;;;;;;;45.45;29.20;;;;;;;1.90;100.00;93843.00;5033957;28;24458;-73
2022/04/01 02:28:18;;;;;;;45.53;30.05;;;;;;;1.94;100.00;93847.00;5033302;28;24566;-73
2022/04/01 02:30:46;;;;;;;40.20;29.55;;;;;;;2.03;100.00;93842.25;5033399;28;24452;-74
2022/04/01 02:33:12;;;;;;;40.28;28.92;;;;;;;2.08;100.00;93841.09;5033854;28;24470;-73
2022/04/01 02:35:39;;;;;;;40.53;28.45;;;;;;;2.11;100.00;93838.34;5034045;28;24420;-73
2022/04/01 02:38:06;;;;;;;50.50;30.13;;;;;;;2.00;100.00;93845.00;5033818;28;24432;-73
2022/04/01 02:40:32;;;;;;;42.25;26.20;;;;;;;2.06;100.00;93842.91;5035311;28;24430;-73
2022/04/01 02:42:59;;;;;;;50.03;26.98;;;;;;;2.07;100.00;93844.53;5035675;28;24426;-73
2022/04/01 02:45:26;;;;;;;35.78;28.20;;;;;;;2.17;100.00;93847.34;5034815;28;24855;-74
2022/04/01 02:47:54;;;;;;;30.35;27.13;;;;;;;2.07;100.00;93854.75;5034982;28;24522;-74
2022/04/01 02:50:21;;;;;;;29.83;26.67;;;;;;;1.97;100.00;93838.34;5035047;28;24464;-74
2022/04/01 02:52:47;;;;;;;30.33;27.08;;;;;;;1.97;100.00;93842.66;5034668;28;24485;-74
2022/04/01 02:55:14;;;;;;;29.48;26.52;;;;;;;2.10;100.00;93846.91;5033375;28;24428;-74
2022/04/01 02:57:40;;;;;;;27.77;24.77;;;;;;;2.07;100.00;93844.53;5032964;28;24431;-73
2022/04/01 03:00:09;;;;;;;26.42;23.75;;;;;;;2.20;100.00;93847.16;5033157;28;24447;-73
2022/04/01 03:02:36;;;;;;;25.92;23.38;;;;;;;2.19;100.00;93840.44;5033048;28;24424;-73
2022/04/01 03:05:05;;;;;;;23.73;21.63;;;;;;;2.29;100.00;93858.56;5032969;28;25042;-73
2022/04/01 03:07:31;;;;;;;25.05;22.52;;;;;;;2.33;100.00;93847.22;5033013;28;24418;-74
2022/04/01 03:09:58;;;;;;;25.48;22.88;;;;;;;2.21;100.00;93846.25;5032432;28;24451;-73
2022/04/01 03:12:25;;;;;;;25.67;23.03;;;;;;;2.22;100.00;93839.41;5033106;28;24516;-73
2022/04/01 03:14:51;;;;;;;24.88;22.27;;;;;;;2.08;100.00;93853.03;5032996;28;24435;-73
2022/04/01 03:17:18;;;;;;;24.35;21.98;;;;;;;2.02;100.00;93854.22;5032990;28;24462;-73
2022/04/01 03:19:45;;;;;;;26.60;23.95;;;;;;;2.17;100.00;93855.84;5032656;28;24431;-73
2022/04/01 03:22:12;;;;;;;25.67;23.08;;;;;;;2.24;100.00;93853.72;5033115;28;25094;-73
2022/04/01 03:24:39;;;;;;;25.95;23.45;;;;;;;2.21;100.00;93853.91;5033027;28;24940;-73
2022/04/01 03:27:05;;;;;;;26.07;23.57;;;;;;;2.16;100.00;93854.19;5032996;28;24427;-73
2022/04/01 03:29:32;;;;;;;25.65;23.05;;;;;;;2.04;100.00;93851.56;5032941;28;24459;-73
2022/04/01 03:31:59;;;;;;;24.25;21.95;;;;;;;2.08;100.00;93853.03;5032667;28;24455;-73
2022/04/01 03:34:26;;;;;;;26.75;24.02;;;;;;;2.07;100.00;93864.94;5032830;28;24430;-73
2022/04/01 03:36:54;;;;;;;24.63;22.23;;;;;;;2.36;100.00;93858.09;5033305;28;24428;-73
2022/04/01 03:39:24;;;;;;;25.30;22.70;;;;;;;2.17;100.00;93860.13;5033181;28;24526;-73
2022/04/01 03:41:51;;;;;;;24.95;22.35;;;;;;;2.12;100.00;93864.69;5032834;28;24420;-73
2022/04/01 03:44:18;;;;;;;24.65;22.20;;;;;;;2.22;100.00;93863.22;5032871;28;24423;-73
2022/04/01 03:46:48;;;;;;;25.00;22.52;;;;;;;2.21;100.00;93864.13;5032547;28;24444;-74
2022/04/01 03:49:21;;;;;;;23.42;21.27;;;;;;;2.18;100.00;93870.22;5032993;28;24774;-74
2022/04/01 03:51:50;;;;;;;23.55;21.15;;;;;;;2.18;100.00;93867.69;5032456;28;24442;-74
2022/04/01 03:54:17;;;;;;;25.00;22.50;;;;;;;2.12;100.00;93869.81;5032607;28;25000;-74
2022/04/01 03:56:52;;;;;;;28.13;22.73;;;;;;;2.06;100.00;93873.53;5032728;28;24431;-73
2022/04/01 03:59:19;;;;;;;25.60;21.67;;;;;;;1.98;100.00;93868.06;5032436;28;24482;-73
2022/04/01 04:01:46;;;;;;;24.80;21.98;;;;;;;2.18;100.00;93871.97;5032400;28;24424;-74
2022/04/01 04:04:13;;;;;;;24.70;22.23;;;;;;;2.10;100.00;93866.50;5032141;28;24427;-73
2022/04/01 04:06:41;;;;;;;24.83;22.35;;;;;;;2.01;100.00;93862.78;5032704;28;24420;-73
2022/04/01 04:09:07;;;;;;;26.38;23.40;;;;;;;2.17;100.00;93870.34;5032820;28;24517;-73
2022/04/01 04:11:35;;;;;;;27.47;23.50;;;;;;;1.90;100.00;93875.38;5033813;28;24493;-74
2022/04/01 04:14:04;;;;;;;25.88;22.52;;;;;;;2.00;100.00;93867.97;5034336;28;24482;-74
2022/04/01 04:16:36;;;;;;;27.02;24.13;;;;;;;2.13;100.00;93867.16;5032935;28;24481;-73
2022/04/01 04:19:07;;;;;;;26.83;23.97;;;;;;;2.07;100.00;93866.69;5032930;28;24524;-73
2022/04/01 04:21:40;;;;;;;29.75;24.15;;;;;;;2.00;100.00;93866.22;5031699;28;24459;-73
2022/04/01 04:24:11;;;;;;;26.95;24.15;;;;;;;1.90;100.00;93870.25;5032052;28;24993;-73
2022/04/01 04:26:39;;;;;;;25.85;22.77;;;;;;;1.92;100.00;93874.34;5031301;28;24526;-74
2022/04/01 04:29:10;;;;;;;26.55;23.85;;;;;;;1.84;100.00;93874.00;5031045;28;24486;-72
2022/04/01 04:31:37;;;;;;;29.60;24.08;;;;;;;1.79;100.00;93878.56;5031677;28;25282;-72
2022/04/01 04:34:09;;;;;;;27.60;24.83;;;;;;;1.78;100.00;93876.06;5016242;28;24438;-74
2022/04/01 04:36:38;;;;;;;29.58;26.05;;;;;;;1.72;100.00;93877.28;5027851;28;24428;-74
2022/04/01 04:39:07;;;;;;;27.48;24.55;;;;;;;1.79;100.00;93882.84;5044150;28;24999;-76
2022/04/01 04:41:34;;;;;;;38.00;28.38;;;;;;;1.83;100.00;93881.75;5050146;28;24415;-74
2022/04/01 04:44:02;;;;;;;42.70;29.23;;;;;;;1.88;100.00;93890.75;5035127;28;24987;-74
2022/04/01 04:46:31;;;;;;;31.00;27.70;;;;;;;1.78;100.00;93887.13;5030639;28;24423;-74
2022/04/01 04:48:59;;;;;;;37.08;29.88;;;;;;;1.69;100.00;93888.47;5030903;28;24420;-73
2022/04/01 04:51:27;;;;;;;41.33;28.83;;;;;;;1.80;100.00;93887.84;5030383;28;24860;-73
2022/04/01 04:53:57;;;;;;;34.50;28.77;;;;;;;1.83;100.00;93890.22;5030634;28;24515;-74
2022/04/01 04:56:26;;;;;;;32.70;29.02;;;;;;;1.60;100.00;93893.31;5030301;28;24805;-74
2022/04/01 04:58:54;;;;;;;31.38;28.05;;;;;;;1.74;100.00;93892.47;5030407;28;24829;-74
2022/04/01 05:01:25;;;;;;;32.03;28.60;;;;;;;1.60;100.00;93898.41;5028863;28;24961;-74
2022/04/01 05:04:10;;;;;;;29.55;26.55;;;;;;;1.77;100.00;93899.97;5030297;28;24435;-74
2022/04/01 05:06:41;;;;;;;29.85;26.73;;;;;;;1.76;100.00;93896.59;5030281;28;24504;-74
2022/04/01 05:09:15;;;;;;;28.05;25.33;;;;;;;1.74;100.00;93900.13;5031190;28;24758;-74
2022/04/01 05:11:48;;;;;;;29.13;25.33;;;;;;;1.63;100.00;93905.88;5030917;28;24444;-75
2022/04/01 05:14:38;;;;;;;26.77;24.13;;;;;;;1.69;100.00;93914.00;5031602;28;24416;-75
2022/04/01 05:17:08;;;;;;;26.77;23.95;;;;;;;1.85;100.00;93916.47;5022715;28;24428;-73
2022/04/01 05:19:40;;;;;;;30.92;27.55;;;;;;;1.77;100.00;93916.09;5010659;28;25009;-72
2022/04/01 05:22:08;;;;;;;29.10;26.20;;;;;;;1.66;100.00;93921.00;5014574;28;24975;-72
2022/04/01 05:24:39;;;;;;;29.33;26.15;;;;;;;1.81;100.00;93919.28;5030352;28;24985;-72
2022/04/01 05:27:12;;;;;;;29.85;26.63;;;;;;;1.72;100.00;93923.22;5030233;28;24953;-73
2022/04/01 05:29:43;;;;;;;29.02;26.02;;;;;;;1.50;100.00;93923.63;5029866;28;25025;-72
2022/04/01 05:32:11;;;;;;;29.95;26.73;;;;;;;1.68;100.00;93924.28;5030373;28;24478;-73
2022/04/01 05:34:43;;;;;;;32.25;27.90;;;;;;;1.56;100.00;93930.09;5030476;28;24510;-75
2022/04/01 05:37:10;;;;;;;30.58;27.58;;;;;;;1.45;100.00;93931.53;5031651;28;24424;-74
2022/04/01 05:39:38;;;;;;;29.40;26.45;;;;;;;1.47;100.00;93933.16;5035903;28;24427;-75
2022/04/01 05:42:07;;;;;;;27.60;25.08;;;;;;;1.44;100.00;93934.16;5035376;28;24451;-75
2022/04/01 05:44:34;;;;;;;29.05;25.95;;;;;;;1.44;100.00;93937.53;5035920;28;24451;-73
2022/04/01 05:47:01;;;;;;;28.55;25.67;;;;;;;1.48;100.00;93942.47;5041672;28;24459;-72
2022/04/01 05:49:29;;;;;;;29.13;26.13;;;;;;;1.52;100.00;93937.13;5054356;28;24442;-72
2022/04/01 05:51:57;;;;;;;27.10;24.52;;;;;;;1.64;100.00;93941.50;5054400;28;24539;-72
2022/04/01 05:54:26;;;;;;;28.55;25.65;;;;;;;1.61;100.00;93948.53;5057967;28;24530;-74
2022/04/01 05:56:53;;;;;;;26.65;24.02;;;;;;;1.44;100.00;93946.91;5055446;28;24820;-72
2022/04/01 05:59:22;;;;;;;28.67;26.00;;;;;;;1.36;100.00;93954.19;5054867;28;24446;-73
2022/04/01 06:02:05;;;;;;;28.45;25.50;;;;;;;1.34;100.00;93951.72;5054604;28;24414;-72
2022/04/01 06:04:54;;;;;;;26.77;24.27;;;;;;;1.41;100.00;93955.59;5055131;28;24428;-73
2022/04/01 06:07:28;;;;;;;27.20;24.40;;;;;;;1.41;100.00;93958.13;5054473;28;24470;-73
2022/04/01 06:10:01;;;;;;;27.15;24.33;;;;;;;1.32;100.00;93960.38;5054930;28;24865;-73
2022/04/01 06:12:34;;;;;;;26.83;24.15;;;;;;;1.24;100.00;93959.97;5055303;28;24530;-72
2022/04/01 06:15:09;;;;;;;27.67;24.67;;;;;;;1.35;100.00;93957.66;5053989;28;24423;-72
2022/04/01 06:17:43;;;;;;;25.75;23.45;;;;;;;1.35;100.00;93966.13;5053786;28;24411;-72
2022/04/01 06:20:11;;;;;;;24.65;22.42;;;;;;;1.41;100.00;93963.22;5053813;28;24439;-72
2022/04/01 06:22:49;;;;;;;25.90;23.42;;;;;;;1.54;100.00;93959.97;5033636;28;24523;-72
2022/04/01 06:25:20;;;;;;;24.33;22.05;;;;;;;1.43;100.00;93981.00;5031741;28;24497;-73
2022/04/01 06:27:48;;;;;;;25.33;22.55;;;;;;;1.33;100.00;93975.56;5032436;28;24962;-73
2022/04/01 06:30:17;;;;;;;24.25;21.75;;;;;;;1.41;100.00;93977.72;5031821;28;24439;-72
2022/04/01 06:32:53;;;;;;;24.55;22.13;;;;;;;1.36;100.00;93980.50;5032848;28;24527;-73
2022/04/01 06:35:27;;;;;;;24.13;21.73;;;;;;;1.54;100.00;93972.75;5033068;28;24533;-74
2022/04/01 06:38:00;;;;;;;21.40;19.48;;;;;;;1.24;100.00;93981.19;5031863;28;24416;-73
2022/04/01 06:40:29;;;;;;;23.02;20.80;;;;;;;1.34;100.00;93984.88;5029900;28;24432;-73
2022/04/01 06:42:58;;;;;;;22.30;20.15;;;;;;;1.41;100.00;93990.47;5032698;28;24961;-73
2022/04/01 06:45:25;;;;;;;23.13;20.92;;;;;;;1.40;100.00;93989.63;5032671;28;24527;-73
2022/04/01 06:47:52;;;;;;;22.23;20.23;;;;;;;1.39;100.00;93987.19;5031580;28;24432;-70
2022/04/01 06:50:20;;;;;;;21.50;19.30;;;;;;;1.48;100.00;93986.66;5032651;28;25046;-72
2022/04/01 06:52:47;;;;;;;23.58;21.27;;;;;;;1.51;100.00;93994.13;5033271;28;24490;-74
2022/04/01 06:55:15;;;;;;;22.58;20.17;;;;;;;1.48;100.00;93996.84;5033233;28;24439;-74
2022/04/01 06:57:42;;;;;;;22.92;20.70;;;;;;;1.34;100.00;93996.81;5033020;28;24456;-72
2022/04/01 07:00:12;;;;;;;22.00;19.98;;;;;;;1.23;100.00;93992.31;5032816;28;24854;-70
2022/04/01 07:02:39;;;;;;;21.95;19.95;;;;;;;1.13;100.00;93994.53;5033050;28;24426;-70
2022/04/01 07:05:06;;;;;;;22.00;20.00;;;;;;;1.19;100.00;94001.03;5032823;28;24466;-72
2022/04/01 07:07:33;;;;;;;22.48;20.25;;;;;;;1.08;100.00;94009.25;5032871;28;24427;-72
2022/04/01 07:10:00;;;;;;;22.67;20.52;;;;;;;1.11;100.00;94004.00;5032651;28;24435;-72
2022/04/01 07:12:27;;;;;;;25.25;22.98;;;;;;;1.14;100.00;94008.09;5032954;28;24436;-71
2022/04/01 07:14:54;;;;;;;28.67;25.67;;;;;;;1.02;100.00;93999.38;5032558;28;24983;-72
2022/04/01 07:17:20;;;;;;;30.43;27.23;;;;;;;1.01;100.00;93994.38;5032741;28;24518;-72
2022/04/01 07:19:47;;;;;;;28.77;25.88;;;;;;;0.96;100.00;94004.81;5032446;28;24486;-72
2022/04/01 07:22:14;;;;;;;25.73;23.15;;;;;;;0.99;100.00;93993.63;5037797;28;24426;-71
2022/04/01 07:24:40;;;;;;;25.37;22.77;;;;;;;0.93;100.00;93990.50;5045994;28;24489;-72
2022/04/01 07:27:08;;;;;;;24.15;21.98;;;;;;;0.93;100.00;93995.63;5041450;28;24851;-71
2022/04/01 07:29:36;;;;;;;25.25;22.85;;;;;;;1.08;100.00;93999.06;5033089;28;24420;-72
2022/04/01 07:34:48;;;;;;;26.02;23.48;;;;;;;0.81;100.00;93997.97;5032356;28;24423;-72
2022/04/01 07:37:14;;;;;;;26.88;24.02;;;;;;;0.79;100.00;94005.72;5032386;28;24440;-70
2022/04/01 07:39:41;;;;;;;27.58;24.98;;;;;;;0.86;100.00;94008.78;5032130;28;25010;-73
2022/04/01 07:42:08;;;;;;;26.50;23.63;;;;;;;0.78;100.00;94008.31;5031092;28;24435;-73
2022/04/01 07:44:36;;;;;;;27.02;24.20;;;;;;;0.89;100.00;94009.44;5031182;28;24423;-71
2022/04/01 07:47:03;;;;;;;28.30;25.70;;;;;;;0.95;100.00;94006.53;5031102;28;24440;-73
2022/04/01 07:49:29;;;;;;;26.58;23.98;;;;;;;0.99;100.00;94009.75;5030787;28;25031;-73
2022/04/01 07:51:56;;;;;;;27.15;24.50;;;;;;;1.12;100.00;94012.47;5030979;28;24498;-73
2022/04/01 07:54:22;;;;;;;25.90;23.40;;;;;;;1.07;100.00;94022.88;5030642;28;24826;-72
2022/04/01 07:56:48;;;;;;;26.20;23.50;;;;;;;0.94;100.00;94019.38;5031307;28;24428;-72
2022/04/01 07:59:15;;;;;;;25.38;23.00;;;;;;;0.93;100.00;94020.28;5031439;28;24941;-70
2022/04/01 08:01:43;;;;;;;28.67;25.83;;;;;;;1.03;100.00;94021.41;5030955;28;24963;-72
2022/04/01 08:04:09;;;;;;;27.10;24.67;;;;;;;0.91;100.00;94022.06;5031618;28;25077;-69
2022/04/01 08:06:36;;;;;;;26.48;23.80;;;;;;;0.84;100.00;94021.56;5031707;28;24420;-70
2022/04/01 08:09:03;;;;;;;27.50;24.80;;;;;;;0.99;100.00;94026.75;5031622;28;24427;-69
2022/04/01 08:11:29;;;;;;;24.58;22.30;;;;;;;0.92;100.00;94029.63;5031371;28;24443;-71
2022/04/01 08:13:56;;;;;;;25.02;22.73;;;;;;;1.00;100.00;94025.84;5029976;28;24790;-70
2022/04/01 08:16:23;;;;;;;24.33;22.10;;;;;;;0.97;100.00;94031.97;5030688;28;24852;-71
2022/04/01 08:18:51;;;;;;;23.90;21.65;;;;;;;1.11;100.00;94038.84;5031604;28;24407;-72
2022/04/01 08:21:18;;;;;;;23.75;21.42;;;;;;;1.01;100.00;94037.72;5030830;28;24820;-70
2022/04/01 08:23:44;;;;;;;21.58;19.50;;;;;;;1.08;100.00;94039.84;5031246;28;25020;-71
2022/04/01 08:26:12;;;;;;;21.67;19.75;;;;;;;1.05;100.00;94037.47;5031147;28;24466;-72
2022/04/01 08:28:39;;;;;;;22.98;20.77;;;;;;;1.12;100.00;94043.06;5031187;28;25077;-71
2022/04/01 08:31:09;;;;;;;20.20;18.03;;;;;;;1.26;100.00;94042.31;5030908;28;24436;-70
2022/04/01 08:33:36;;;;;;;20.83;18.80;;;;;;;1.28;100.00;94051.53;5031125;28;24848;-69
2022/04/01 08:36:04;;;;;;;18.13;16.33;;;;;;;1.25;100.00;94046.59;5030572;28;24669;-70
2022/04/01 08:38:31;;;;;;;17.15;15.45;;;;;;;1.28;100.00;94050.69;5030447;28;24567;-70
2022/04/01 08:40:58;;;;;;;18.38;16.55;;;;;;;1.41;100.00;94061.91;5030080;28;24519;-69
2022/04/01 08:43:26;;;;;;;17.85;16.20;;;;;;;1.35;100.00;94062.22;5030887;28;24442;-72
2022/04/01 08:45:53;;;;;;;18.42;16.63;;;;;;;1.26;100.00;94061.00;5030714;28;24518;-70
2022/04/01 08:48:20;;;;;;;17.42;15.82;;;;;;;1.31;100.00;94064.13;5031436;28;24436;-73
2022/04/01 08:50:46;;;;;;;17.83;15.77;;;;;;;1.34;100.00;94063.94;5013963;28;24463;-72
2022/04/01 08:53:14;;;;;;;17.42;15.57;;;;;;;1.34;100.00;94065.69;5031319;28;24837;-71
2022/04/01 08:55:46;;;;;;;16.95;15.25;;;;;;;1.27;100.00;94069.47;5031661;28;24419;-72
2022/04/01 08:58:12;;;;;;;17.90;16.02;;;;;;;1.26;100.00;94076.31;5031650;28;24478;-73
2022/04/01 09:00:39;;;;;;;17.02;15.52;;;;;;;1.38;100.00;94074.81;5047273;23;24471;-79
2022/04/01 09:03:08;;;;;;;16.15;14.65;;;;;;;1.41;100.00;94078.03;5032593;28;24470;-76
2022/04/01 09:05:35;;;;;;;17.55;15.85;;;;;;;1.39;100.00;94077.25;5017653;28;24797;-78
2022/04/01 09:08:04;;;;;;;17.15;15.38;;;;;;;1.39;100.00;94072.16;5005145;28;24472;-77
2022/04/01 09:10:55;;;;;;;15.48;14.15;;;;;;;1.51;100.00;94074.94;4995122;28;24449;-81
2022/04/01 09:13:23;;;;;;;16.25;14.73;;;;;;;1.70;100.00;94081.50;4999415;28;24989;-77
2022/04/01 09:15:50;;;;;;;14.20;12.90;;;;;;;1.78;100.00;94085.38;4992088;28;25082;-77
2022/04/01 09:18:36;;;;;;;14.75;13.38;;;;;;;1.62;100.00;94091.31;4992953;28;24985;-80
2022/04/01 09:21:02;;;;;;;15.35;13.77;;;;;;;1.45;100.00;94092.25;4996153;28;24429;-79
2022/04/01 09:23:30;;;;;;;15.00;13.50;;;;;;;1.21;100.00;94099.47;4994884;28;24778;-79
2022/04/01 09:25:57;;;;;;;14.32;13.13;;;;;;;1.15;100.00;94088.78;4997155;28;24432;-79
2022/04/01 09:28:26;;;;;;;13.27;12.07;;;;;;;1.19;100.00;94096.19;4994789;28;24432;-78
2022/04/01 09:31:02;;;;;;;13.02;11.75;;;;;;;1.27;100.00;94095.78;4994884;28;24488;-78
2022/04/01 09:33:48;;;;;;;13.77;12.55;;;;;;;1.26;100.00;94099.25;4992673;28;24484;-79
2022/04/01 09:36:19;;;;;;;13.80;12.50;;;;;;;1.29;100.00;94101.63;4992134;28;24425;-75
2022/04/01 09:39:01;;;;;;;12.43;11.23;;;;;;;1.23;100.00;94093.50;4991898;28;24982;-75
2022/04/01 09:41:37;;;;;;;11.57;10.37;;;;;;;1.25;100.00;94102.69;4990284;28;24437;-75
2022/04/01 09:44:07;;;;;;;11.65;10.52;;;;;;;1.36;100.00;94102.94;4991178;28;24433;-74
2022/04/01 09:46:38;;;;;;;12.38;10.50;;;;;;;1.35;100.00;94100.47;4990921;28;24432;-74
2022/04/01 09:49:04;;;;;;;11.05;10.05;;;;;;;1.33;100.00;94104.81;4991357;28;24439;-74
2022/04/01 09:51:32;;;;;;;12.15;11.02;;;;;;;1.26;100.00;94108.59;4990586;28;24513;-74
2022/04/01 09:54:02;;;;;;;14.68;13.18;;;;;;;1.31;100.00;94109.19;4990832;28;24946;-75
2022/04/01 09:56:38;;;;;;;12.80;11.53;;;;;;;1.47;100.00;94112.56;4990359;28;24437;-75
2022/04/01 09:59:07;;;;;;;13.93;12.00;;;;;;;1.34;100.00;94111.59;4990910;28;24422;-75
2022/04/01 10:01:34;;;;;;;11.57;10.48;;;;;;;1.34;100.00;94114.16;4990596;28;24997;-74
2022/04/01 10:04:02;;;;;;;10.15;9.15;;;;;;;1.36;100.00;94114.88;4991000;28;24487;-74
2022/04/01 10:06:31;;;;;;;10.27;9.27;;;;;;;1.43;100.00;94118.75;4990481;28;24431;-75
2022/04/01 10:09:01;;;;;;;9.50;8.50;;;;;;;1.51;100.00;94121.69;4990685;28;24420;-75
2022/04/01 10:11:30;;;;;;;8.82;8.07;;;;;;;1.31;100.00;94120.22;4990710;28;24425;-75
2022/04/01 10:14:03;;;;;;;8.60;7.78;;;;;;;1.30;100.00;94122.84;4990382;28;25053;-75
2022/04/01 10:16:33;;;;;;;9.07;8.27;;;;;;;1.29;100.00;94128.84;4990511;28;25033;-75
2022/04/01 10:19:06;;;;;;;8.70;7.90;;;;;;;1.26;100.00;94123.91;4990164;28;24423;-77
2022/04/01 10:21:34;;;;;;;11.80;9.50;;;;;;;1.26;100.00;94123.91;4989474;28;24428;-76
2022/04/01 10:24:09;;;;;;;10.50;9.50;;;;;;;1.11;100.00;94121.28;4992647;28;24444;-76
2022/04/01 10:26:41;;;;;;;8.27;7.57;;;;;;;1.28;100.00;94130.59;4997038;28;24491;-76
2022/04/01 10:29:10;;;;;;;8.52;7.50;;;;;;;1.40;100.00;94135.03;5013126;28;24954;-76
2022/04/01 10:31:36;;;;;;;11.57;10.35;;;;;;;1.47;100.00;94130.41;5014264;28;24509;-76
2022/04/01 10:34:22;;;;;;;8.00;7.18;;;;;;;1.56;100.00;94129.09;5015014;28;24967;-77
2022/04/01 10:36:57;;;;;;;9.10;8.30;;;;;;;1.44;100.00;94133.94;5015742;28;24428;-80
2022/04/01 10:39:25;;;;;;;8.10;7.40;;;;;;;1.47;100.00;94138.06;5014717;28;24435;-78
2022/04/01 10:42:08;;;;;;;7.55;6.95;;;;;;;1.45;100.00;94134.81;5013702;28;24438;-75
2022/04/01 10:44:53;;;;;;;8.00;7.30;;;;;;;1.49;100.00;94140.56;5013937;28;24432;-75
2022/04/01 10:47:23;;;;;;;7.38;6.68;;;;;;;1.35;100.00;94141.28;5013927;28;24416;-79
2022/04/01 10:52:45;;;;;;;6.32;5.72;;;;;;;1.66;100.00;94138.72;4935573;29;25065;-79
2022/04/01 10:55:16;;;;;;;7.55;6.15;;;;;;;1.48;100.00;94137.16;4996259;28;24440;-79
2022/04/01 10:57:45;;;;;;;6.87;5.80;;;;;;;1.32;100.00;94144.81;5015881;28;24514;-79
2022/04/01 11:00:15;;;;;;;6.50;6.00;;;;;;;1.35;100.00;94143.84;5014839;28;24802;-80
2022/04/01 11:02:44;;;;;;;6.63;6.03;;;;;;;1.29;100.00;94136.50;5016133;28;24511;-79
2022/04/01 11:05:29;;;;;;;6.20;5.68;;;;;;;1.73;100.00;94143.50;5015895;28;24427;-80
2022/04/01 11:08:19;;;;;;;6.00;5.50;;;;;;;1.77;100.00;94152.63;5016413;28;24419;-79
2022/04/01 11:11:06;;;;;;;5.20;4.72;;;;;;;1.50;100.00;94142.19;5015546;28;24428;-80
2022/04/01 11:13:33;;;;;;;5.25;4.75;;;;;;;1.65;100.00;94151.59;5015558;28;24487;-79
2022/04/01 11:16:14;;;;;;;4.93;4.53;;;;;;;1.49;100.00;94143.94;5016290;28;24424;-78
2022/04/01 11:19:14;;;;;;;5.03;4.60;;;;;;;1.39;100.00;94156.34;5013355;28;24958;-77
2022/04/01 11:21:42;;;;;;;4.85;4.45;;;;;;;1.29;100.00;94150.06;5012381;28;24957;-78
2022/04/01 11:24:30;;;;;;;5.70;5.20;;;;;;;1.31;100.00;94150.81;5013214;28;24483;-78
2022/04/01 11:26:56;;;;;;;5.65;5.15;;;;;;;1.36;100.00;94153.13;5012529;28;24460;-78
2022/04/01 11:29:24;;;;;;;7.65;5.72;;;;;;;1.44;100.00;94149.25;5012554;28;24436;-77
2022/04/01 11:32:03;;;;;;;6.32;5.72;;;;;;;1.58;100.00;94158.75;5011928;28;24435;-77
2022/04/01 11:34:29;;;;;;;6.05;5.55;;;;;;;1.29;100.00;94150.06;5009871;28;24417;-77
2022/04/01 11:37:00;;;;;;;7.60;6.00;;;;;;;1.40;100.00;94155.44;4994295;28;24421;-78
2022/04/01 11:39:27;;;;;;;8.48;5.78;;;;;;;1.17;100.00;94150.72;4994564;28;24436;-78